Latest Weather Observations for Swanbourne

IDW60801

Issued at 11:32 pm WST Friday 29 April 2016 (issued every 30 minutes, with the page automatically refreshed every 10 minutes)

About weather observations | Map of weather stations | Latest weather observations for WA | Other Formats
Station Details ID: 009215 Name: SWANBOURNE Lat: -31.96 Lon: 115.76 Height: 40.96 m
Data from the previous 72 hours. | See also: Recent months at Swanbourne
Date/Time
WST
Temp
°C
App
Temp
°C
Dew
Point
Rel
Hum
%
Delta-T
°C
Wind Press
QNH
hPa
Press
MSL
hPa
Rain
since 9 am
mm
Dir
 
Spd
km/h
Gust
km/h
Spd
kts
Gust
kts
29/11:30pm 14.8 15.1 14.5 98 0.2 E 6 7 3 4 - - 3.8
29/11:00pm 14.8 15.5 14.5 98 0.2 S 4 9 2 5 - - 3.4
29/10:30pm 14.9 14.7 14.6 98 0.2 SSE 9 15 5 8 - - 3.4
29/10:00pm 15.3 13.7 15.0 98 0.2 S 17 30 9 16 - - 2.8
29/09:30pm 15.5 11.5 15.2 98 0.2 SSW 30 46 16 25 - - 2.8
29/09:02pm 16.4 12.5 15.4 94 0.6 WSW 30 48 16 26 - - 1.4
29/09:00pm 16.7 12.5 15.7 94 0.6 WSW 32 48 17 26 - - 1.2
29/08:40pm 16.5 12.2 16.0 97 0.3 WSW 33 54 18 29 - - 0.8
29/08:30pm 16.6 10.9 15.3 92 0.8 WSW 39 52 21 28 - - 0.8
29/08:19pm 17.9 12.5 13.8 77 2.3 W 35 57 19 31 - - 0.6
29/08:17pm 19.1 14.1 13.9 72 3.0 W 33 57 18 31 - - 0.4
29/08:00pm 18.8 13.6 13.4 71 3.1 W 33 50 18 27 - - 0.4
29/07:48pm 19.0 14.2 13.0 68 3.4 W 30 50 16 27 - - 0.4
29/07:30pm 19.1 14.8 13.1 68 3.4 W 28 41 15 22 - - 0.4
29/07:00pm 18.9 14.3 12.4 66 3.6 W 28 41 15 22 - - 0.4
29/06:30pm 18.9 14.1 11.7 63 4.0 W 28 43 15 23 - - 0.4
29/06:00pm 19.1 13.8 11.2 60 4.3 W 30 39 16 21 - - 0.4
29/05:30pm 19.0 14.2 11.8 63 4.0 W 28 37 15 20 - - 0.4
29/05:00pm 19.4 14.9 11.4 60 4.4 W 26 39 14 21 - - 0.4
29/04:30pm 19.5 14.3 11.5 60 4.4 WSW 30 43 16 23 - - 0.4
29/04:00pm 19.8 15.2 11.0 57 4.8 W 26 39 14 21 - - 0.4
29/03:30pm 19.7 14.7 12.2 62 4.2 W 30 43 16 23 - - 0.4
29/03:00pm 20.1 15.0 10.5 54 5.2 WSW 28 41 15 22 - - 0.4
29/02:30pm 20.8 15.2 11.4 55 5.2 W 32 46 17 25 - - 0.4
29/02:00pm 21.2 16.3 12.6 58 4.9 W 30 43 16 23 - - 0.4
29/01:30pm 19.2 16.6 13.8 71 3.1 W 20 32 11 17 - - 0.4
29/01:00pm 19.8 15.5 13.3 66 3.7 W 28 39 15 21 - - 0.4
29/12:30pm 21.4 17.2 12.3 56 5.1 W 26 39 14 21 - - 0.4
29/12:00pm 19.5 15.9 14.1 71 3.1 W 26 39 14 21 - - 0.4
29/11:30am 20.5 16.6 12.2 59 4.7 W 24 37 13 20 - - 0.2
29/11:00am 19.9 17.6 14.7 72 3.0 W 20 30 11 16 - - 0.2
29/10:30am 18.3 14.8 14.4 78 2.3 W 26 37 14 20 - - 0.2
29/10:00am 17.4 15.2 14.5 83 1.7 W 19 33 10 18 - - 0.2
29/09:30am 20.2 17.6 13.9 67 3.6 W 20 30 11 16 - - 0.0
29/09:00am 19.3 18.4 14.8 75 2.6 WNW 13 24 7 13 - - 1.2
29/08:30am 18.6 15.6 12.4 67 3.5 W 20 30 11 16 - - 1.2
29/08:00am 18.6 15.4 11.4 63 3.9 WSW 19 24 10 13 - - 1.2
29/07:30am 18.2 14.7 11.0 63 3.9 WSW 20 30 11 16 - - 1.2
29/07:00am 18.2 14.4 11.3 64 3.8 WSW 22 32 12 17 - - 1.2
29/06:30am 17.9 15.6 11.7 67 3.4 W 15 22 8 12 - - 1.2
29/06:00am 18.1 14.5 10.5 61 4.1 W 20 30 11 16 - - 1.2
29/05:30am 17.7 14.2 10.3 62 3.9 W 19 26 10 14 - - 1.2
29/05:00am 17.8 14.2 10.4 62 4.0 W 20 28 11 15 - - 1.2
29/04:30am 18.0 14.4 10.4 61 4.1 WSW 20 33 11 18 - - 1.2
29/04:00am 17.9 13.4 10.0 60 4.2 WSW 24 39 13 21 - - 1.2
29/03:30am 17.9 13.7 9.8 59 4.3 W 22 32 12 17 - - 1.2
29/03:00am 18.0 14.4 10.6 62 4.0 W 20 30 11 16 - - 1.2
29/02:30am 18.2 14.8 10.6 61 4.1 W 19 26 10 14 - - 1.2
29/02:00am 18.1 15.1 10.7 62 4.0 W 17 24 9 13 - - 1.2
29/01:30am 18.1 15.6 12.3 69 3.2 SW 17 24 9 13 - - 1.2
29/01:00am 18.2 15.2 10.6 61 4.1 WSW 17 24 9 13 - - 1.2
29/12:30am 18.2 14.4 9.8 58 4.5 WSW 20 28 11 15 - - 1.2
29/12:00am 18.3 14.9 11.4 64 3.8 WSW 20 30 11 16 - - 1.2
 
Date/Time
WST
Temp
°C
App
Temp
°C
Dew
Point
Rel
Hum
%
Delta-T
°C
Wind Press
QNH
hPa
Press
MSL
hPa
Rain
since 9 am
mm
Dir
 
Spd
km/h
Gust
km/h
Spd
kts
Gust
kts
28/11:30pm 18.4 14.3 10.0 58 4.5 WSW 22 33 12 18 - - 1.2
28/11:00pm 18.3 14.9 10.7 61 4.1 SW 19 28 10 15 - - 1.2
28/10:30pm 18.6 15.1 10.9 61 4.2 SW 20 32 11 17 - - 1.2
28/10:00pm 18.1 15.0 11.7 66 3.5 SW 19 30 10 16 - - 1.2
28/09:30pm 18.2 15.2 12.4 69 3.2 SW 20 32 11 17 - - 1.2
28/09:00pm 18.6 15.7 12.4 67 3.5 WSW 19 24 10 13 - - 1.0
28/08:30pm 18.5 15.3 11.8 65 3.7 SW 20 30 11 16 - - 1.0
28/08:00pm 18.4 15.5 12.8 70 3.1 SSW 20 32 11 17 - - 1.0
28/07:30pm 18.7 15.2 12.2 66 3.6 WSW 22 32 12 17 - - 1.0
28/07:00pm 18.6 15.0 11.9 65 3.7 SW 22 32 12 17 - - 1.0
28/06:30pm 18.7 15.3 12.5 67 3.5 SW 22 33 12 18 - - 1.0
28/06:00pm 18.8 15.0 12.3 66 3.6 SW 24 39 13 21 - - 1.0
28/05:30pm 19.1 14.7 12.8 67 3.5 WSW 28 41 15 22 - - 1.0
28/05:00pm 19.1 15.5 13.1 68 3.4 SW 24 35 13 19 - - 1.0
28/04:30pm 18.8 15.0 13.6 72 3.0 SW 26 37 14 20 - - 1.0
28/04:00pm 19.2 16.5 15.7 80 2.1 WSW 24 39 13 21 - - 1.0
28/03:30pm 18.3 17.2 17.7 96 0.4 W 20 30 11 16 - - 1.0
28/03:00pm 17.1 12.9 15.6 91 0.9 WSW 32 52 17 28 - - 0.8
28/02:46pm 19.5 14.8 14.3 72 3.0 W 32 57 17 31 - - 0.4
28/02:30pm 20.6 16.9 14.9 70 3.4 W 28 41 15 22 - - 0.4
28/02:01pm 18.0 13.1 15.3 84 1.6 WSW 35 57 19 31 - - 0.4
28/02:00pm 17.9 13.2 14.8 82 1.8 WSW 33 57 18 31 - - 0.4
28/01:58pm 18.8 14.0 14.5 76 2.5 W 33 57 18 31 - - 0.4
28/01:30pm 19.7 15.8 14.5 72 3.0 W 28 44 15 24 - - 0.4
28/01:00pm 16.6 12.2 15.1 91 0.9 W 32 43 17 23 - - 0.4
28/12:30pm 21.0 17.5 14.4 66 3.9 WNW 26 37 14 20 - - 0.0
28/12:00pm 18.5 14.8 14.0 75 2.6 W 26 35 14 19 - - 0.0
28/11:30am 19.4 14.1 11.4 60 4.4 W 30 43 16 23 - - 0.0
28/11:00am 20.4 14.8 10.2 52 5.5 WNW 30 43 16 23 - - 0.0
28/10:30am 20.3 15.1 11.5 57 4.9 WNW 30 44 16 24 - - 0.0
28/10:00am 19.3 15.3 11.8 62 4.2 W 24 39 13 21 - - 0.0
28/09:30am 17.4 13.9 12.3 72 2.8 W 22 37 12 20 - - 0.0
28/09:07am 18.6 13.9 12.1 66 3.6 W 28 57 15 31 - - 0.0
28/09:00am 19.2 14.7 11.5 61 4.2 W 26 35 14 19 - - 1.2
28/08:30am 17.5 14.3 13.0 75 2.5 WNW 22 37 12 20 - - 1.2
28/08:00am 17.8 13.7 11.6 67 3.4 W 24 37 13 20 - - 1.2
28/07:30am 17.2 14.0 11.9 71 2.9 W 20 32 11 17 - - 1.2
28/07:00am 17.0 12.3 10.8 67 3.3 W 26 33 14 18 - - 1.2
28/06:30am 16.2 12.1 11.4 73 2.6 W 24 39 13 21 - - 1.2
28/06:00am 16.7 12.8 12.0 74 2.6 WNW 24 33 13 18 - - 1.0
28/05:30am 15.8 12.5 11.6 76 2.3 W 20 32 11 17 - - 1.0
28/05:00am 14.8 11.3 13.5 92 0.7 WSW 24 35 13 19 - - 1.0
28/04:33am 14.4 10.1 13.1 92 0.7 W 28 46 15 25 - - 1.0
28/04:30am 14.4 9.3 13.0 91 0.8 W 32 48 17 26 - - 1.0
28/04:18am 15.8 11.2 12.4 80 1.9 WNW 28 50 15 27 - - 0.6
28/04:00am 16.4 12.4 10.5 68 3.1 WNW 22 33 12 18 - - 0.6
28/03:30am 15.5 12.6 11.1 75 2.4 WNW 17 26 9 14 - - 0.6
28/03:00am 14.5 11.7 12.7 89 1.0 WSW 19 30 10 16 - - 0.6
28/02:30am 13.0 12.0 10.2 83 1.4 NE 6 7 3 4 - - 0.2
28/02:00am 14.1 12.6 9.3 73 2.5 NNE 7 9 4 5 - - 0.0
28/01:30am 14.1 12.6 9.1 72 2.5 N 7 11 4 6 - - 0.0
28/01:00am 13.9 12.0 9.1 73 2.4 NNE 9 13 5 7 - - 0.0
28/12:30am 14.1 12.3 9.5 74 2.4 NNE 9 13 5 7 - - 0.0
28/12:00am 13.6 12.2 9.6 77 2.1 N 7 13 4 7 - - 0.0
 
Date/Time
WST
Temp
°C
App
Temp
°C
Dew
Point
Rel
Hum
%
Delta-T
°C
Wind Press
QNH
hPa
Press
MSL
hPa
Rain
since 9 am
mm
Dir
 
Spd
km/h
Gust
km/h
Spd
kts
Gust
kts
27/11:30pm 13.2 11.7 9.3 77 2.0 NNE 7 11 4 6 - - 0.0
27/11:00pm 13.4 11.9 9.3 76 2.1 NNE 7 9 4 5 - - 0.0
27/10:30pm 13.3 11.8 9.2 76 2.1 NE 7 9 4 5 - - 0.0
27/10:00pm 13.8 12.3 9.0 73 2.4 NNE 7 7 4 4 - - 0.0
27/09:30pm 13.9 12.6 9.1 73 2.4 E 6 6 3 3 - - 0.0
27/09:00pm 14.2 13.2 9.0 71 2.6 ESE 4 6 2 3 - - 0.0
27/08:30pm 14.1 12.8 9.1 72 2.5 ESE 6 6 3 3 - - 0.0
27/08:00pm 14.0 12.6 9.0 72 2.5 ESE 6 7 3 4 - - 0.0
27/07:30pm 14.1 12.8 9.1 72 2.5 ESE 6 6 3 3 - - 0.0
27/07:00pm 14.5 13.0 9.1 70 2.8 SE 7 9 4 5 - - 0.0
27/06:30pm 14.7 13.3 8.9 68 3.0 S 6 7 3 4 - - 0.0
27/06:00pm 15.3 13.9 8.8 65 3.3 SW 6 7 3 4 - - 0.0
27/05:30pm 16.1 14.8 9.1 63 3.6 WSW 6 7 3 4 - - 0.0
27/05:00pm 16.1 14.9 9.5 65 3.4 WSW 6 9 3 5 - - 0.0
27/04:30pm 16.4 14.9 9.1 62 3.8 SW 7 11 4 6 - - 0.0
27/04:00pm 17.1 15.6 9.0 59 4.2 SW 7 13 4 7 - - 0.0
27/03:30pm 17.0 14.6 8.7 58 4.3 SSW 11 15 6 8 - - 0.0
27/03:00pm 17.9 16.3 8.7 55 4.8 SW 7 13 4 7 - - 0.0
27/02:30pm 17.8 16.2 8.1 53 5.0 SW 6 11 3 6 - - 0.0
27/02:00pm 17.9 16.5 9.0 56 4.6 W 6 11 3 6 - - 0.0
27/01:30pm 17.0 16.7 10.1 64 3.7 ESE 2 6 1 3 - - 0.0
27/01:00pm 15.8 14.2 10.1 69 3.0 SW 9 15 5 8 - - 0.0
27/12:30pm 16.3 14.2 9.9 66 3.4 WNW 11 17 6 9 - - 0.0
27/12:00pm 16.6 15.7 9.3 62 3.8 N 4 7 2 4 - - 0.0
27/11:30am 17.2 15.9 10.1 63 3.8 NNE 7 13 4 7 - - 0.0
27/11:00am 16.8 15.8 10.9 68 3.2 NE 7 11 4 6 - - 0.0
27/10:30am 15.6 14.4 10.4 71 2.7 ENE 7 15 4 8 - - 0.0
27/10:00am 15.2 14.3 12.7 85 1.4 ENE 9 15 5 8 - - 0.0
27/09:30am 13.3 12.9 13.0 98 0.2 ENE 7 13 4 7 - - 0.0
27/09:00am 12.6 12.2 12.3 98 0.2 NNE 6 9 3 5 - - 2.2
27/08:30am 12.0 11.4 11.7 98 0.2 NE 6 9 3 5 - - 2.2
27/08:00am 11.5 10.2 11.2 98 0.2 NE 9 17 5 9 - - 2.2
27/07:30am 10.7 9.5 10.4 98 0.2 ENE 7 13 4 7 - - 2.2
27/07:00am 10.5 9.3 10.2 98 0.2 ENE 7 9 4 5 - - 2.2
27/06:30am 10.3 8.6 10.0 98 0.2 E 9 13 5 7 - - 2.2
27/06:00am 10.4 9.1 10.1 98 0.2 E 7 11 4 6 - - 2.0
27/05:30am 10.6 9.4 10.3 98 0.2 ENE 7 11 4 6 - - 2.0
27/05:00am 11.0 9.2 10.7 98 0.2 E 11 15 6 8 - - 2.0
27/04:30am 11.6 10.7 11.3 98 0.2 SE 7 11 4 6 - - 2.0
27/04:00am 11.6 10.8 11.1 97 0.3 E 6 7 3 4 - - 1.4
27/03:30am 11.5 10.7 10.9 96 0.3 ENE 6 7 3 4 - - 1.4
27/03:00am 11.7 10.7 10.9 95 0.4 NE 7 9 4 5 - - 1.4
27/02:30am 11.3 9.9 10.8 97 0.3 E 9 9 5 5 - - 1.4
27/02:00am 11.4 10.0 10.9 97 0.3 E 9 11 5 6 - - 1.4
27/01:30am 11.6 10.8 11.1 97 0.3 SE 6 7 3 4 - - 1.4
27/01:00am 11.6 9.7 10.5 93 0.6 E 11 15 6 8 - - 1.4
27/12:30am 12.2 10.8 10.8 91 0.7 ESE 9 15 5 8 - - 1.2
27/12:00am 12.5 9.4 10.4 87 1.1 ESE 17 20 9 11 - - 1.0

Other Formats:

Comma delimited format used in spreadsheet applications
http://www.bom.gov.au/fwo/IDW60801/IDW60801.94614.axf

JavaScript Object Notation format (JSON) in row-major order
http://www.bom.gov.au/fwo/IDW60801/IDW60801.94614.json